sensor_id;sensor_type;location;lat;lon;timestamp;P1;durP1;ratioP1;P2;durP2;ratioP2
69246;SDS011;56358;56.328;43.992;2023-06-05T00:01:57;5.82;;;2.60;;
69246;SDS011;56358;56.328;43.992;2023-06-05T00:03:58;7.40;;;2.50;;
69246;SDS011;56358;56.328;43.992;2023-06-05T00:05:59;4.45;;;2.22;;
69246;SDS011;56358;56.328;43.992;2023-06-05T00:08:00;4.75;;;2.05;;
69246;SDS011;56358;56.328;43.992;2023-06-05T00:10:00;4.03;;;2.30;;
69246;SDS011;56358;56.328;43.992;2023-06-05T00:12:01;4.38;;;2.80;;
69246;SDS011;56358;56.328;43.992;2023-06-05T00:14:03;5.93;;;2.40;;
69246;SDS011;56358;56.328;43.992;2023-06-05T00:16:05;4.55;;;1.98;;
69246;SDS011;56358;56.328;43.992;2023-06-05T00:18:06;3.92;;;1.98;;
69246;SDS011;56358;56.328;43.992;2023-06-05T00:20:08;3.65;;;1.70;;
69246;SDS011;56358;56.328;43.992;2023-06-05T00:22:09;3.85;;;1.88;;
69246;SDS011;56358;56.328;43.992;2023-06-05T00:24:10;3.78;;;1.70;;
69246;SDS011;56358;56.328;43.992;2023-06-05T00:26:11;4.60;;;1.77;;
69246;SDS011;56358;56.328;43.992;2023-06-05T00:28:12;7.13;;;1.90;;
69246;SDS011;56358;56.328;43.992;2023-06-05T00:30:13;4.95;;;2.00;;
69246;SDS011;56358;56.328;43.992;2023-06-05T00:32:15;3.97;;;1.60;;
69246;SDS011;56358;56.328;43.992;2023-06-05T00:34:15;3.35;;;1.80;;
69246;SDS011;56358;56.328;43.992;2023-06-05T00:36:16;2.97;;;1.63;;
69246;SDS011;56358;56.328;43.992;2023-06-05T00:38:19;4.82;;;1.80;;
69246;SDS011;56358;56.328;43.992;2023-06-05T00:40:20;5.97;;;2.25;;
69246;SDS011;56358;56.328;43.992;2023-06-05T00:42:21;3.72;;;1.90;;
69246;SDS011;56358;56.328;43.992;2023-06-05T00:44:22;2.83;;;1.77;;
69246;SDS011;56358;56.328;43.992;2023-06-05T00:46:23;4.60;;;1.70;;
69246;SDS011;56358;56.328;43.992;2023-06-05T00:48:24;7.85;;;2.38;;
69246;SDS011;56358;56.328;43.992;2023-06-05T00:50:25;3.08;;;1.80;;
69246;SDS011;56358;56.328;43.992;2023-06-05T00:52:26;4.10;;;1.80;;
69246;SDS011;56358;56.328;43.992;2023-06-05T00:54:28;3.92;;;1.80;;
69246;SDS011;56358;56.328;43.992;2023-06-05T00:56:29;4.10;;;1.75;;
69246;SDS011;56358;56.328;43.992;2023-06-05T00:58:33;4.85;;;1.85;;
69246;SDS011;56358;56.328;43.992;2023-06-05T01:00:34;6.35;;;1.90;;
69246;SDS011;56358;56.328;43.992;2023-06-05T01:02:36;3.33;;;1.73;;
69246;SDS011;56358;56.328;43.992;2023-06-05T01:04:37;3.50;;;1.60;;
69246;SDS011;56358;56.328;43.992;2023-06-05T01:06:41;4.25;;;1.40;;
69246;SDS011;56358;56.328;43.992;2023-06-05T01:08:42;3.67;;;1.63;;
69246;SDS011;56358;56.328;43.992;2023-06-05T01:13:01;2.45;;;1.33;;
69246;SDS011;56358;56.328;43.992;2023-06-05T01:15:07;2.22;;;1.40;;
69246;SDS011;56358;56.328;43.992;2023-06-05T01:17:09;3.10;;;1.90;;
69246;SDS011;56358;56.328;43.992;2023-06-05T01:19:12;3.30;;;1.80;;
69246;SDS011;56358;56.328;43.992;2023-06-05T01:21:15;3.22;;;1.70;;
69246;SDS011;56358;56.328;43.992;2023-06-05T01:23:16;3.08;;;1.80;;
69246;SDS011;56358;56.328;43.992;2023-06-05T01:25:16;3.58;;;1.90;;
69246;SDS011;56358;56.328;43.992;2023-06-05T01:29:22;2.15;;;1.48;;
69246;SDS011;56358;56.328;43.992;2023-06-05T01:31:29;3.45;;;1.58;;
69246;SDS011;56358;56.328;43.992;2023-06-05T01:33:38;2.08;;;1.60;;
69246;SDS011;56358;56.328;43.992;2023-06-05T01:35:44;4.43;;;1.80;;
69246;SDS011;56358;56.328;43.992;2023-06-05T01:37:51;3.85;;;1.98;;
69246;SDS011;56358;56.328;43.992;2023-06-05T01:39:53;3.10;;;1.50;;
69246;SDS011;56358;56.328;43.992;2023-06-05T01:41:56;3.33;;;1.60;;
69246;SDS011;56358;56.328;43.992;2023-06-05T01:43:59;3.20;;;1.60;;
69246;SDS011;56358;56.328;43.992;2023-06-05T01:46:01;3.95;;;1.60;;
69246;SDS011;56358;56.328;43.992;2023-06-05T01:48:02;3.50;;;1.70;;
69246;SDS011;56358;56.328;43.992;2023-06-05T01:50:07;2.10;;;1.50;;
69246;SDS011;56358;56.328;43.992;2023-06-05T01:52:08;3.72;;;1.70;;
69246;SDS011;56358;56.328;43.992;2023-06-05T01:54:09;3.88;;;1.42;;
69246;SDS011;56358;56.328;43.992;2023-06-05T01:56:10;4.25;;;1.60;;
69246;SDS011;56358;56.328;43.992;2023-06-05T01:58:10;3.90;;;1.90;;
69246;SDS011;56358;56.328;43.992;2023-06-05T02:00:11;4.10;;;2.10;;
69246;SDS011;56358;56.328;43.992;2023-06-05T02:02:17;4.28;;;2.20;;
69246;SDS011;56358;56.328;43.992;2023-06-05T02:04:19;4.00;;;2.00;;
69246;SDS011;56358;56.328;43.992;2023-06-05T02:06:20;4.47;;;1.92;;
69246;SDS011;56358;56.328;43.992;2023-06-05T02:08:21;4.28;;;2.50;;
69246;SDS011;56358;56.328;43.992;2023-06-05T02:10:22;4.93;;;2.00;;
69246;SDS011;56358;56.328;43.992;2023-06-05T02:12:25;5.05;;;2.47;;
69246;SDS011;56358;56.328;43.992;2023-06-05T02:14:26;4.32;;;1.83;;
69246;SDS011;56358;56.328;43.992;2023-06-05T02:16:27;3.35;;;2.00;;
69246;SDS011;56358;56.328;43.992;2023-06-05T02:18:29;5.30;;;2.20;;
69246;SDS011;56358;56.328;43.992;2023-06-05T02:20:31;3.72;;;2.00;;
69246;SDS011;56358;56.328;43.992;2023-06-05T02:22:32;4.82;;;2.08;;
69246;SDS011;56358;56.328;43.992;2023-06-05T02:24:33;5.10;;;1.80;;
69246;SDS011;56358;56.328;43.992;2023-06-05T02:26:35;3.30;;;2.05;;
69246;SDS011;56358;56.328;43.992;2023-06-05T02:28:35;3.38;;;1.90;;
69246;SDS011;56358;56.328;43.992;2023-06-05T02:30:36;4.10;;;2.03;;
69246;SDS011;56358;56.328;43.992;2023-06-05T02:32:37;6.70;;;2.10;;
69246;SDS011;56358;56.328;43.992;2023-06-05T02:34:41;5.75;;;2.50;;
69246;SDS011;56358;56.328;43.992;2023-06-05T02:36:42;4.50;;;2.13;;
69246;SDS011;56358;56.328;43.992;2023-06-05T02:38:45;3.20;;;2.05;;
69246;SDS011;56358;56.328;43.992;2023-06-05T02:40:48;3.97;;;2.10;;
69246;SDS011;56358;56.328;43.992;2023-06-05T02:42:49;5.90;;;2.33;;
69246;SDS011;56358;56.328;43.992;2023-06-05T02:44:50;3.50;;;2.00;;
69246;SDS011;56358;56.328;43.992;2023-06-05T02:46:51;4.90;;;2.40;;
69246;SDS011;56358;56.328;43.992;2023-06-05T02:48:52;7.40;;;2.50;;
69246;SDS011;56358;56.328;43.992;2023-06-05T02:50:53;3.90;;;2.55;;
69246;SDS011;56358;56.328;43.992;2023-06-05T02:52:53;5.00;;;2.55;;
69246;SDS011;56358;56.328;43.992;2023-06-05T02:54:54;6.50;;;2.90;;
69246;SDS011;56358;56.328;43.992;2023-06-05T02:56:55;6.03;;;3.28;;
69246;SDS011;56358;56.328;43.992;2023-06-05T02:58:56;4.53;;;2.65;;
69246;SDS011;56358;56.328;43.992;2023-06-05T03:00:57;5.38;;;2.90;;
69246;SDS011;56358;56.328;43.992;2023-06-05T03:03:01;4.60;;;2.80;;
69246;SDS011;56358;56.328;43.992;2023-06-05T03:05:04;5.13;;;3.03;;
69246;SDS011;56358;56.328;43.992;2023-06-05T03:07:05;6.13;;;3.05;;
69246;SDS011;56358;56.328;43.992;2023-06-05T03:09:07;6.55;;;3.40;;
69246;SDS011;56358;56.328;43.992;2023-06-05T03:11:08;7.00;;;3.38;;
69246;SDS011;56358;56.328;43.992;2023-06-05T03:13:09;5.80;;;3.47;;
69246;SDS011;56358;56.328;43.992;2023-06-05T03:15:10;5.80;;;3.20;;
69246;SDS011;56358;56.328;43.992;2023-06-05T03:17:10;8.02;;;3.60;;
69246;SDS011;56358;56.328;43.992;2023-06-05T03:19:11;6.82;;;3.63;;
69246;SDS011;56358;56.328;43.992;2023-06-05T03:21:12;6.88;;;3.95;;
69246;SDS011;56358;56.328;43.992;2023-06-05T03:23:13;5.80;;;3.90;;
69246;SDS011;56358;56.328;43.992;2023-06-05T03:25:13;8.02;;;4.10;;
69246;SDS011;56358;56.328;43.992;2023-06-05T03:27:15;12.18;;;4.15;;
69246;SDS011;56358;56.328;43.992;2023-06-05T03:29:15;6.80;;;3.70;;
69246;SDS011;56358;56.328;43.992;2023-06-05T03:31:16;6.50;;;3.78;;
69246;SDS011;56358;56.328;43.992;2023-06-05T03:33:17;6.82;;;3.70;;
69246;SDS011;56358;56.328;43.992;2023-06-05T03:35:18;8.57;;;4.05;;
69246;SDS011;56358;56.328;43.992;2023-06-05T03:37:19;7.03;;;4.15;;
69246;SDS011;56358;56.328;43.992;2023-06-05T03:39:20;7.00;;;4.50;;
69246;SDS011;56358;56.328;43.992;2023-06-05T03:41:21;5.50;;;4.00;;
69246;SDS011;56358;56.328;43.992;2023-06-05T03:43:22;6.53;;;3.90;;
69246;SDS011;56358;56.328;43.992;2023-06-05T03:47:27;11.00;;;4.18;;
69246;SDS011;56358;56.328;43.992;2023-06-05T03:49:28;7.30;;;4.00;;
69246;SDS011;56358;56.328;43.992;2023-06-05T03:51:29;7.72;;;3.85;;
69246;SDS011;56358;56.328;43.992;2023-06-05T03:53:30;6.95;;;3.78;;
69246;SDS011;56358;56.328;43.992;2023-06-05T03:55:32;5.97;;;3.40;;
69246;SDS011;56358;56.328;43.992;2023-06-05T03:57:41;6.47;;;3.85;;
69246;SDS011;56358;56.328;43.992;2023-06-05T03:59:42;6.25;;;3.35;;
69246;SDS011;56358;56.328;43.992;2023-06-05T04:01:42;6.85;;;3.50;;
69246;SDS011;56358;56.328;43.992;2023-06-05T04:03:43;8.80;;;3.83;;
69246;SDS011;56358;56.328;43.992;2023-06-05T04:05:44;9.23;;;3.88;;
69246;SDS011;56358;56.328;43.992;2023-06-05T04:07:44;6.95;;;3.55;;
69246;SDS011;56358;56.328;43.992;2023-06-05T04:09:45;9.18;;;4.40;;
69246;SDS011;56358;56.328;43.992;2023-06-05T04:11:46;9.40;;;5.40;;
69246;SDS011;56358;56.328;43.992;2023-06-05T04:13:48;8.82;;;4.78;;
69246;SDS011;56358;56.328;43.992;2023-06-05T04:15:48;13.98;;;5.38;;
69246;SDS011;56358;56.328;43.992;2023-06-05T04:17:50;8.75;;;4.93;;
69246;SDS011;56358;56.328;43.992;2023-06-05T04:19:50;14.93;;;6.97;;
69246;SDS011;56358;56.328;43.992;2023-06-05T04:21:51;9.55;;;5.20;;
69246;SDS011;56358;56.328;43.992;2023-06-05T04:23:52;10.13;;;5.53;;
69246;SDS011;56358;56.328;43.992;2023-06-05T04:25:53;10.60;;;4.95;;
69246;SDS011;56358;56.328;43.992;2023-06-05T04:27:55;8.80;;;5.30;;
69246;SDS011;56358;56.328;43.992;2023-06-05T04:29:57;10.02;;;5.45;;
69246;SDS011;56358;56.328;43.992;2023-06-05T04:31:58;9.73;;;5.03;;
69246;SDS011;56358;56.328;43.992;2023-06-05T04:33:58;7.38;;;4.68;;
69246;SDS011;56358;56.328;43.992;2023-06-05T04:38:04;6.68;;;3.45;;
69246;SDS011;56358;56.328;43.992;2023-06-05T04:40:05;6.43;;;2.95;;
69246;SDS011;56358;56.328;43.992;2023-06-05T04:42:09;6.47;;;2.95;;
69246;SDS011;56358;56.328;43.992;2023-06-05T04:44:14;10.77;;;3.20;;
69246;SDS011;56358;56.328;43.992;2023-06-05T04:46:17;5.22;;;3.05;;
69246;SDS011;56358;56.328;43.992;2023-06-05T04:48:17;10.48;;;4.90;;
69246;SDS011;56358;56.328;43.992;2023-06-05T04:50:22;7.82;;;3.88;;
69246;SDS011;56358;56.328;43.992;2023-06-05T04:52:26;11.55;;;3.17;;
69246;SDS011;56358;56.328;43.992;2023-06-05T04:54:30;5.22;;;2.28;;
69246;SDS011;56358;56.328;43.992;2023-06-05T04:56:31;6.35;;;2.42;;
69246;SDS011;56358;56.328;43.992;2023-06-05T04:58:33;6.57;;;2.40;;
69246;SDS011;56358;56.328;43.992;2023-06-05T05:00:33;5.65;;;2.50;;
69246;SDS011;56358;56.328;43.992;2023-06-05T05:02:35;7.05;;;2.20;;
69246;SDS011;56358;56.328;43.992;2023-06-05T05:04:36;4.70;;;2.25;;
69246;SDS011;56358;56.328;43.992;2023-06-05T05:06:37;5.15;;;2.25;;
69246;SDS011;56358;56.328;43.992;2023-06-05T05:08:38;7.15;;;2.22;;
69246;SDS011;56358;56.328;43.992;2023-06-05T05:10:39;3.25;;;2.10;;
69246;SDS011;56358;56.328;43.992;2023-06-05T05:12:40;6.50;;;2.13;;
69246;SDS011;56358;56.328;43.992;2023-06-05T05:14:40;4.18;;;2.00;;
69246;SDS011;56358;56.328;43.992;2023-06-05T05:16:41;5.25;;;2.33;;
69246;SDS011;56358;56.328;43.992;2023-06-05T05:18:43;4.18;;;2.20;;
69246;SDS011;56358;56.328;43.992;2023-06-05T05:20:45;4.60;;;2.25;;
69246;SDS011;56358;56.328;43.992;2023-06-05T05:22:46;5.22;;;2.13;;
69246;SDS011;56358;56.328;43.992;2023-06-05T05:24:47;3.35;;;1.90;;
69246;SDS011;56358;56.328;43.992;2023-06-05T05:26:48;4.60;;;1.77;;
69246;SDS011;56358;56.328;43.992;2023-06-05T05:28:50;4.38;;;1.80;;
69246;SDS011;56358;56.328;43.992;2023-06-05T05:30:51;11.20;;;1.98;;
69246;SDS011;56358;56.328;43.992;2023-06-05T05:32:52;6.03;;;1.75;;
69246;SDS011;56358;56.328;43.992;2023-06-05T05:34:53;5.05;;;1.63;;
69246;SDS011;56358;56.328;43.992;2023-06-05T05:36:54;4.65;;;2.20;;
69246;SDS011;56358;56.328;43.992;2023-06-05T05:38:54;4.82;;;1.55;;
69246;SDS011;56358;56.328;43.992;2023-06-05T05:40:56;3.42;;;1.50;;
69246;SDS011;56358;56.328;43.992;2023-06-05T05:42:56;9.73;;;4.57;;
69246;SDS011;56358;56.328;43.992;2023-06-05T05:44:57;5.75;;;1.77;;
69246;SDS011;56358;56.328;43.992;2023-06-05T05:46:58;4.30;;;1.50;;
69246;SDS011;56358;56.328;43.992;2023-06-05T05:48:59;4.30;;;1.77;;
69246;SDS011;56358;56.328;43.992;2023-06-05T05:50:59;4.38;;;1.65;;
69246;SDS011;56358;56.328;43.992;2023-06-05T05:53:00;2.25;;;1.45;;
69246;SDS011;56358;56.328;43.992;2023-06-05T05:55:01;3.50;;;1.50;;
69246;SDS011;56358;56.328;43.992;2023-06-05T05:57:05;7.35;;;1.70;;
69246;SDS011;56358;56.328;43.992;2023-06-05T05:59:07;3.10;;;1.83;;
69246;SDS011;56358;56.328;43.992;2023-06-05T06:01:08;4.63;;;1.75;;
69246;SDS011;56358;56.328;43.992;2023-06-05T06:03:09;3.97;;;1.60;;
69246;SDS011;56358;56.328;43.992;2023-06-05T06:05:09;4.55;;;2.45;;
69246;SDS011;56358;56.328;43.992;2023-06-05T06:07:12;2.55;;;1.80;;
69246;SDS011;56358;56.328;43.992;2023-06-05T06:09:14;4.88;;;1.40;;
69246;SDS011;56358;56.328;43.992;2023-06-05T06:11:15;2.70;;;1.73;;
69246;SDS011;56358;56.328;43.992;2023-06-05T06:13:16;3.33;;;1.30;;
69246;SDS011;56358;56.328;43.992;2023-06-05T06:15:19;7.57;;;1.88;;
69246;SDS011;56358;56.328;43.992;2023-06-05T06:17:19;4.18;;;1.73;;
69246;SDS011;56358;56.328;43.992;2023-06-05T06:19:20;2.78;;;1.40;;
69246;SDS011;56358;56.328;43.992;2023-06-05T06:21:23;6.53;;;2.20;;
69246;SDS011;56358;56.328;43.992;2023-06-05T06:23:25;5.90;;;2.30;;
69246;SDS011;56358;56.328;43.992;2023-06-05T06:25:26;4.63;;;2.63;;
69246;SDS011;56358;56.328;43.992;2023-06-05T06:29:30;3.22;;;1.65;;
69246;SDS011;56358;56.328;43.992;2023-06-05T06:31:31;6.55;;;1.70;;
69246;SDS011;56358;56.328;43.992;2023-06-05T06:33:32;4.13;;;1.60;;
69246;SDS011;56358;56.328;43.992;2023-06-05T06:35:33;2.63;;;1.40;;
69246;SDS011;56358;56.328;43.992;2023-06-05T06:37:35;3.93;;;1.60;;
69246;SDS011;56358;56.328;43.992;2023-06-05T06:39:36;4.30;;;1.65;;
69246;SDS011;56358;56.328;43.992;2023-06-05T06:41:38;4.18;;;1.80;;
69246;SDS011;56358;56.328;43.992;2023-06-05T06:43:39;5.00;;;1.35;;
69246;SDS011;56358;56.328;43.992;2023-06-05T06:45:40;3.05;;;1.50;;
69246;SDS011;56358;56.328;43.992;2023-06-05T06:47:40;4.85;;;2.70;;
69246;SDS011;56358;56.328;43.992;2023-06-05T06:49:42;7.45;;;2.05;;
69246;SDS011;56358;56.328;43.992;2023-06-05T06:51:43;3.40;;;1.70;;
69246;SDS011;56358;56.328;43.992;2023-06-05T06:53:44;4.18;;;1.70;;
69246;SDS011;56358;56.328;43.992;2023-06-05T06:55:45;3.63;;;1.70;;
69246;SDS011;56358;56.328;43.992;2023-06-05T06:57:46;3.85;;;1.70;;
69246;SDS011;56358;56.328;43.992;2023-06-05T06:59:47;4.57;;;1.67;;
69246;SDS011;56358;56.328;43.992;2023-06-05T07:02:07;3.15;;;1.60;;
69246;SDS011;56358;56.328;43.992;2023-06-05T07:04:09;2.97;;;1.75;;
69246;SDS011;56358;56.328;43.992;2023-06-05T07:06:10;4.38;;;1.50;;
69246;SDS011;56358;56.328;43.992;2023-06-05T07:08:12;2.42;;;1.60;;
69246;SDS011;56358;56.328;43.992;2023-06-05T07:10:13;3.55;;;1.77;;
69246;SDS011;56358;56.328;43.992;2023-06-05T07:12:14;3.60;;;1.77;;
69246;SDS011;56358;56.328;43.992;2023-06-05T07:14:17;3.88;;;1.85;;
69246;SDS011;56358;56.328;43.992;2023-06-05T07:16:17;3.17;;;1.60;;
69246;SDS011;56358;56.328;43.992;2023-06-05T07:18:18;4.38;;;1.58;;
69246;SDS011;56358;56.328;43.992;2023-06-05T07:20:22;4.53;;;1.80;;
69246;SDS011;56358;56.328;43.992;2023-06-05T07:22:22;5.15;;;2.00;;
69246;SDS011;56358;56.328;43.992;2023-06-05T07:24:28;5.13;;;1.92;;
69246;SDS011;56358;56.328;43.992;2023-06-05T07:26:30;3.63;;;1.70;;
69246;SDS011;56358;56.328;43.992;2023-06-05T07:28:32;3.50;;;2.00;;
69246;SDS011;56358;56.328;43.992;2023-06-05T07:30:33;2.92;;;1.67;;
69246;SDS011;56358;56.328;43.992;2023-06-05T07:32:34;3.88;;;1.48;;
69246;SDS011;56358;56.328;43.992;2023-06-05T07:34:34;5.32;;;1.90;;
69246;SDS011;56358;56.328;43.992;2023-06-05T07:36:35;3.63;;;1.65;;
69246;SDS011;56358;56.328;43.992;2023-06-05T07:38:36;5.88;;;2.22;;
69246;SDS011;56358;56.328;43.992;2023-06-05T07:40:40;3.20;;;1.70;;
69246;SDS011;56358;56.328;43.992;2023-06-05T07:42:41;3.60;;;1.67;;
69246;SDS011;56358;56.328;43.992;2023-06-05T07:44:41;5.35;;;2.08;;
69246;SDS011;56358;56.328;43.992;2023-06-05T07:46:43;3.85;;;1.65;;
69246;SDS011;56358;56.328;43.992;2023-06-05T07:48:45;4.45;;;1.70;;
69246;SDS011;56358;56.328;43.992;2023-06-05T07:50:45;3.67;;;1.40;;
69246;SDS011;56358;56.328;43.992;2023-06-05T07:52:46;4.38;;;1.55;;
69246;SDS011;56358;56.328;43.992;2023-06-05T07:54:47;3.42;;;1.63;;
69246;SDS011;56358;56.328;43.992;2023-06-05T07:56:48;2.60;;;1.65;;
69246;SDS011;56358;56.328;43.992;2023-06-05T07:58:51;5.60;;;1.98;;
69246;SDS011;56358;56.328;43.992;2023-06-05T08:00:52;3.75;;;1.90;;
69246;SDS011;56358;56.328;43.992;2023-06-05T08:02:53;4.47;;;1.98;;
69246;SDS011;56358;56.328;43.992;2023-06-05T08:04:54;3.63;;;1.80;;
69246;SDS011;56358;56.328;43.992;2023-06-05T08:06:55;5.75;;;2.40;;
69246;SDS011;56358;56.328;43.992;2023-06-05T08:08:56;3.95;;;1.80;;
69246;SDS011;56358;56.328;43.992;2023-06-05T08:10:58;3.28;;;1.85;;
69246;SDS011;56358;56.328;43.992;2023-06-05T08:12:59;3.58;;;1.65;;
69246;SDS011;56358;56.328;43.992;2023-06-05T08:14:59;3.60;;;2.20;;
69246;SDS011;56358;56.328;43.992;2023-06-05T08:17:00;5.30;;;2.08;;
69246;SDS011;56358;56.328;43.992;2023-06-05T08:19:02;4.60;;;1.90;;
69246;SDS011;56358;56.328;43.992;2023-06-05T08:21:03;4.18;;;2.25;;
69246;SDS011;56358;56.328;43.992;2023-06-05T08:23:03;4.07;;;2.10;;
69246;SDS011;56358;56.328;43.992;2023-06-05T08:25:06;3.13;;;2.30;;
69246;SDS011;56358;56.328;43.992;2023-06-05T08:27:07;8.23;;;3.90;;
69246;SDS011;56358;56.328;43.992;2023-06-05T08:29:08;4.45;;;2.20;;
69246;SDS011;56358;56.328;43.992;2023-06-05T08:31:09;4.82;;;1.80;;
69246;SDS011;56358;56.328;43.992;2023-06-05T08:33:10;5.07;;;1.85;;
69246;SDS011;56358;56.328;43.992;2023-06-05T08:35:11;3.90;;;2.05;;
69246;SDS011;56358;56.328;43.992;2023-06-05T08:37:12;3.90;;;1.83;;
69246;SDS011;56358;56.328;43.992;2023-06-05T08:39:13;4.15;;;1.85;;
69246;SDS011;56358;56.328;43.992;2023-06-05T08:41:14;3.92;;;2.03;;
69246;SDS011;56358;56.328;43.992;2023-06-05T08:43:16;3.25;;;1.73;;
69246;SDS011;56358;56.328;43.992;2023-06-05T08:45:17;4.88;;;2.05;;
69246;SDS011;56358;56.328;43.992;2023-06-05T08:47:18;4.50;;;1.90;;
69246;SDS011;56358;56.328;43.992;2023-06-05T08:49:21;2.95;;;1.67;;
69246;SDS011;56358;56.328;43.992;2023-06-05T08:51:24;3.60;;;1.83;;
69246;SDS011;56358;56.328;43.992;2023-06-05T08:53:27;5.18;;;2.25;;
69246;SDS011;56358;56.328;43.992;2023-06-05T08:55:32;4.38;;;2.15;;
69246;SDS011;56358;56.328;43.992;2023-06-05T08:57:40;4.38;;;2.10;;
69246;SDS011;56358;56.328;43.992;2023-06-05T08:59:42;3.38;;;1.85;;
69246;SDS011;56358;56.328;43.992;2023-06-05T09:01:46;3.97;;;2.17;;
69246;SDS011;56358;56.328;43.992;2023-06-05T09:03:47;4.05;;;2.08;;
69246;SDS011;56358;56.328;43.992;2023-06-05T09:05:48;7.28;;;2.08;;
69246;SDS011;56358;56.328;43.992;2023-06-05T09:07:49;3.03;;;1.90;;
69246;SDS011;56358;56.328;43.992;2023-06-05T09:09:49;10.10;;;3.50;;
69246;SDS011;56358;56.328;43.992;2023-06-05T09:12:08;3.92;;;2.42;;
69246;SDS011;56358;56.328;43.992;2023-06-05T09:14:09;5.20;;;2.40;;
69246;SDS011;56358;56.328;43.992;2023-06-05T09:16:11;4.03;;;2.08;;
69246;SDS011;56358;56.328;43.992;2023-06-05T09:18:12;3.97;;;2.08;;
69246;SDS011;56358;56.328;43.992;2023-06-05T09:20:25;3.22;;;2.10;;
69246;SDS011;56358;56.328;43.992;2023-06-05T09:22:32;5.97;;;2.40;;
69246;SDS011;56358;56.328;43.992;2023-06-05T09:24:36;6.78;;;3.70;;
69246;SDS011;56358;56.328;43.992;2023-06-05T09:26:48;6.28;;;3.00;;
69246;SDS011;56358;56.328;43.992;2023-06-05T09:28:59;4.15;;;2.30;;
69246;SDS011;56358;56.328;43.992;2023-06-05T09:31:03;6.78;;;2.42;;
69246;SDS011;56358;56.328;43.992;2023-06-05T09:33:08;3.75;;;2.10;;
69246;SDS011;56358;56.328;43.992;2023-06-05T09:35:09;4.50;;;1.90;;
69246;SDS011;56358;56.328;43.992;2023-06-05T09:37:16;3.17;;;1.88;;
69246;SDS011;56358;56.328;43.992;2023-06-05T09:39:17;7.57;;;2.20;;
69246;SDS011;56358;56.328;43.992;2023-06-05T09:41:19;6.47;;;2.67;;
69246;SDS011;56358;56.328;43.992;2023-06-05T09:43:21;4.40;;;2.40;;
69246;SDS011;56358;56.328;43.992;2023-06-05T09:45:40;6.90;;;2.15;;
69246;SDS011;56358;56.328;43.992;2023-06-05T09:47:42;2.47;;;1.70;;
69246;SDS011;56358;56.328;43.992;2023-06-05T09:51:43;4.75;;;2.05;;
69246;SDS011;56358;56.328;43.992;2023-06-05T09:53:47;5.47;;;2.10;;
69246;SDS011;56358;56.328;43.992;2023-06-05T09:55:49;5.57;;;1.98;;
69246;SDS011;56358;56.328;43.992;2023-06-05T09:57:50;5.43;;;1.95;;
69246;SDS011;56358;56.328;43.992;2023-06-05T10:01:57;6.07;;;2.42;;
69246;SDS011;56358;56.328;43.992;2023-06-05T10:04:05;5.10;;;2.20;;
69246;SDS011;56358;56.328;43.992;2023-06-05T10:06:07;3.78;;;2.05;;
69246;SDS011;56358;56.328;43.992;2023-06-05T10:08:08;10.23;;;2.13;;
69246;SDS011;56358;56.328;43.992;2023-06-05T10:10:12;3.60;;;1.90;;
69246;SDS011;56358;56.328;43.992;2023-06-05T10:12:13;5.55;;;1.90;;
69246;SDS011;56358;56.328;43.992;2023-06-05T10:14:14;4.28;;;2.20;;
69246;SDS011;56358;56.328;43.992;2023-06-05T10:16:16;4.82;;;2.00;;
69246;SDS011;56358;56.328;43.992;2023-06-05T10:18:18;4.10;;;2.07;;
69246;SDS011;56358;56.328;43.992;2023-06-05T10:20:18;4.97;;;2.35;;
69246;SDS011;56358;56.328;43.992;2023-06-05T10:22:20;5.65;;;2.28;;
69246;SDS011;56358;56.328;43.992;2023-06-05T10:24:25;6.03;;;2.55;;
69246;SDS011;56358;56.328;43.992;2023-06-05T10:26:34;3.75;;;2.10;;
69246;SDS011;56358;56.328;43.992;2023-06-05T10:31:26;6.60;;;2.90;;
69246;SDS011;56358;56.328;43.992;2023-06-05T10:33:48;4.85;;;1.80;;
69246;SDS011;56358;56.328;43.992;2023-06-05T10:37:04;3.55;;;2.00;;
69246;SDS011;56358;56.328;43.992;2023-06-05T10:38:57;3.50;;;1.88;;
69246;SDS011;56358;56.328;43.992;2023-06-05T10:41:01;3.78;;;2.10;;
69246;SDS011;56358;56.328;43.992;2023-06-05T10:45:29;4.07;;;1.90;;
69246;SDS011;56358;56.328;43.992;2023-06-05T10:49:32;4.65;;;1.80;;
69246;SDS011;56358;56.328;43.992;2023-06-05T10:51:45;6.85;;;2.60;;
69246;SDS011;56358;56.328;43.992;2023-06-05T10:53:47;5.10;;;3.20;;
69246;SDS011;56358;56.328;43.992;2023-06-05T10:55:48;5.13;;;1.80;;
69246;SDS011;56358;56.328;43.992;2023-06-05T11:00:06;4.70;;;1.90;;
69246;SDS011;56358;56.328;43.992;2023-06-05T11:04:15;4.10;;;1.77;;
69246;SDS011;56358;56.328;43.992;2023-06-05T11:06:17;4.68;;;2.67;;
69246;SDS011;56358;56.328;43.992;2023-06-05T11:08:18;3.95;;;2.28;;
69246;SDS011;56358;56.328;43.992;2023-06-05T11:10:20;4.25;;;2.40;;
69246;SDS011;56358;56.328;43.992;2023-06-05T11:12:22;2.95;;;1.80;;
69246;SDS011;56358;56.328;43.992;2023-06-05T11:14:23;2.50;;;1.52;;
69246;SDS011;56358;56.328;43.992;2023-06-05T11:16:31;6.35;;;1.92;;
69246;SDS011;56358;56.328;43.992;2023-06-05T11:18:36;4.00;;;1.98;;
69246;SDS011;56358;56.328;43.992;2023-06-05T11:27:58;5.75;;;3.13;;
69246;SDS011;56358;56.328;43.992;2023-06-05T11:29:43;4.53;;;2.08;;
69246;SDS011;56358;56.328;43.992;2023-06-05T11:31:45;4.65;;;2.60;;
69246;SDS011;56358;56.328;43.992;2023-06-05T11:33:46;4.80;;;1.80;;
69246;SDS011;56358;56.328;43.992;2023-06-05T11:35:48;3.35;;;1.90;;
69246;SDS011;56358;56.328;43.992;2023-06-05T11:38:06;3.70;;;2.10;;
69246;SDS011;56358;56.328;43.992;2023-06-05T11:40:18;3.60;;;2.25;;
69246;SDS011;56358;56.328;43.992;2023-06-05T11:42:24;2.95;;;1.58;;
69246;SDS011;56358;56.328;43.992;2023-06-05T11:44:34;3.40;;;1.88;;
69246;SDS011;56358;56.328;43.992;2023-06-05T11:46:40;4.63;;;1.60;;
69246;SDS011;56358;56.328;43.992;2023-06-05T11:48:44;3.30;;;1.52;;
69246;SDS011;56358;56.328;43.992;2023-06-05T11:50:53;6.18;;;1.80;;
69246;SDS011;56358;56.328;43.992;2023-06-05T11:53:08;3.03;;;1.60;;
69246;SDS011;56358;56.328;43.992;2023-06-05T11:55:18;2.42;;;1.60;;
69246;SDS011;56358;56.328;43.992;2023-06-05T11:57:22;3.50;;;1.98;;
69246;SDS011;56358;56.328;43.992;2023-06-05T11:59:27;3.63;;;1.70;;
69246;SDS011;56358;56.328;43.992;2023-06-05T12:01:28;5.47;;;2.35;;
69246;SDS011;56358;56.328;43.992;2023-06-05T12:03:32;3.33;;;1.77;;
69246;SDS011;56358;56.328;43.992;2023-06-05T12:05:35;3.00;;;1.83;;
69246;SDS011;56358;56.328;43.992;2023-06-05T12:07:36;3.35;;;1.67;;
69246;SDS011;56358;56.328;43.992;2023-06-05T12:09:38;4.22;;;1.70;;
69246;SDS011;56358;56.328;43.992;2023-06-05T12:11:39;4.28;;;1.92;;
69246;SDS011;56358;56.328;43.992;2023-06-05T12:13:50;3.15;;;1.63;;
69246;SDS011;56358;56.328;43.992;2023-06-05T12:15:58;2.67;;;1.80;;
69246;SDS011;56358;56.328;43.992;2023-06-05T12:18:00;3.47;;;1.73;;
69246;SDS011;56358;56.328;43.992;2023-06-05T12:20:01;3.58;;;1.92;;
69246;SDS011;56358;56.328;43.992;2023-06-05T12:22:05;3.30;;;1.90;;
69246;SDS011;56358;56.328;43.992;2023-06-05T12:24:07;6.10;;;1.90;;
69246;SDS011;56358;56.328;43.992;2023-06-05T12:26:08;2.08;;;1.50;;
69246;SDS011;56358;56.328;43.992;2023-06-05T12:28:18;10.15;;;1.60;;
69246;SDS011;56358;56.328;43.992;2023-06-05T12:30:21;3.83;;;1.70;;
69246;SDS011;56358;56.328;43.992;2023-06-05T12:32:23;4.78;;;2.22;;
69246;SDS011;56358;56.328;43.992;2023-06-05T12:36:51;5.38;;;2.90;;
69246;SDS011;56358;56.328;43.992;2023-06-05T12:38:52;5.30;;;2.20;;
69246;SDS011;56358;56.328;43.992;2023-06-05T12:40:52;3.95;;;1.90;;
69246;SDS011;56358;56.328;43.992;2023-06-05T12:42:53;4.75;;;1.80;;